sensor_id;sensor_type;location;lat;lon;timestamp;P1;durP1;ratioP1;P2;durP2;ratioP2
16600;SDS011;34891;48.164;11.572;2023-09-18T00:01:35;6.30;;;3.10;;
16600;SDS011;34891;48.164;11.572;2023-09-18T00:06:37;8.20;;;3.33;;
16600;SDS011;34891;48.164;11.572;2023-09-18T00:11:42;4.90;;;3.20;;
16600;SDS011;34891;48.164;11.572;2023-09-18T00:16:45;7.28;;;3.58;;
16600;SDS011;34891;48.164;11.572;2023-09-18T00:21:59;7.03;;;3.40;;
16600;SDS011;34891;48.164;11.572;2023-09-18T00:27:04;6.22;;;2.70;;
16600;SDS011;34891;48.164;11.572;2023-09-18T00:32:06;5.65;;;3.28;;
16600;SDS011;34891;48.164;11.572;2023-09-18T00:37:09;8.93;;;3.22;;
16600;SDS011;34891;48.164;11.572;2023-09-18T00:42:14;4.40;;;2.92;;
16600;SDS011;34891;48.164;11.572;2023-09-18T00:47:19;5.73;;;3.10;;
16600;SDS011;34891;48.164;11.572;2023-09-18T00:52:22;5.72;;;2.83;;
16600;SDS011;34891;48.164;11.572;2023-09-18T00:57:26;7.13;;;3.25;;
16600;SDS011;34891;48.164;11.572;2023-09-18T01:02:30;5.47;;;2.75;;
16600;SDS011;34891;48.164;11.572;2023-09-18T01:07:33;6.10;;;3.20;;
16600;SDS011;34891;48.164;11.572;2023-09-18T01:12:40;6.65;;;3.00;;
16600;SDS011;34891;48.164;11.572;2023-09-18T01:17:46;7.15;;;3.08;;
16600;SDS011;34891;48.164;11.572;2023-09-18T01:22:51;6.10;;;3.03;;
16600;SDS011;34891;48.164;11.572;2023-09-18T01:27:53;7.60;;;3.05;;
16600;SDS011;34891;48.164;11.572;2023-09-18T01:32:56;5.72;;;3.17;;
16600;SDS011;34891;48.164;11.572;2023-09-18T01:38:00;5.50;;;2.93;;
16600;SDS011;34891;48.164;11.572;2023-09-18T01:43:04;5.65;;;2.83;;
16600;SDS011;34891;48.164;11.572;2023-09-18T01:48:08;5.80;;;2.80;;
16600;SDS011;34891;48.164;11.572;2023-09-18T01:53:12;6.17;;;3.07;;
16600;SDS011;34891;48.164;11.572;2023-09-18T01:58:15;5.37;;;3.23;;
16600;SDS011;34891;48.164;11.572;2023-09-18T02:03:18;6.57;;;2.90;;
16600;SDS011;34891;48.164;11.572;2023-09-18T02:08:43;7.80;;;2.70;;
16600;SDS011;34891;48.164;11.572;2023-09-18T02:13:46;7.20;;;2.90;;
16600;SDS011;34891;48.164;11.572;2023-09-18T02:18:49;5.30;;;2.90;;
16600;SDS011;34891;48.164;11.572;2023-09-18T02:23:53;5.40;;;2.80;;
16600;SDS011;34891;48.164;11.572;2023-09-18T02:28:58;6.33;;;2.80;;
16600;SDS011;34891;48.164;11.572;2023-09-18T02:34:00;5.30;;;2.60;;
16600;SDS011;34891;48.164;11.572;2023-09-18T02:39:05;4.97;;;2.75;;
16600;SDS011;34891;48.164;11.572;2023-09-18T02:44:07;6.68;;;2.90;;
16600;SDS011;34891;48.164;11.572;2023-09-18T02:49:10;6.55;;;3.03;;
16600;SDS011;34891;48.164;11.572;2023-09-18T02:54:14;6.13;;;2.92;;
16600;SDS011;34891;48.164;11.572;2023-09-18T02:59:17;6.38;;;3.03;;
16600;SDS011;34891;48.164;11.572;2023-09-18T03:04:19;6.97;;;3.07;;
16600;SDS011;34891;48.164;11.572;2023-09-18T03:09:23;6.32;;;2.90;;
16600;SDS011;34891;48.164;11.572;2023-09-18T03:14:26;6.40;;;3.00;;
16600;SDS011;34891;48.164;11.572;2023-09-18T03:19:29;7.32;;;2.92;;
16600;SDS011;34891;48.164;11.572;2023-09-18T03:24:33;5.70;;;2.85;;
16600;SDS011;34891;48.164;11.572;2023-09-18T03:29:36;6.32;;;3.00;;
16600;SDS011;34891;48.164;11.572;2023-09-18T03:34:38;8.20;;;3.58;;
16600;SDS011;34891;48.164;11.572;2023-09-18T03:39:45;5.95;;;3.20;;
16600;SDS011;34891;48.164;11.572;2023-09-18T03:44:48;7.22;;;3.20;;
16600;SDS011;34891;48.164;11.572;2023-09-18T03:49:50;6.47;;;3.03;;
16600;SDS011;34891;48.164;11.572;2023-09-18T03:54:54;6.13;;;3.15;;
16600;SDS011;34891;48.164;11.572;2023-09-18T03:59:57;5.63;;;3.05;;
16600;SDS011;34891;48.164;11.572;2023-09-18T04:05:00;7.78;;;3.30;;
16600;SDS011;34891;48.164;11.572;2023-09-18T04:10:04;10.43;;;3.60;;
16600;SDS011;34891;48.164;11.572;2023-09-18T04:15:08;5.63;;;3.27;;
16600;SDS011;34891;48.164;11.572;2023-09-18T04:20:10;7.90;;;3.50;;
16600;SDS011;34891;48.164;11.572;2023-09-18T04:25:15;8.90;;;3.45;;
16600;SDS011;34891;48.164;11.572;2023-09-18T04:30:18;7.38;;;3.15;;
16600;SDS011;34891;48.164;11.572;2023-09-18T04:35:21;7.68;;;3.00;;
16600;SDS011;34891;48.164;11.572;2023-09-18T04:40:29;5.93;;;2.85;;
16600;SDS011;34891;48.164;11.572;2023-09-18T04:45:33;8.03;;;2.73;;
16600;SDS011;34891;48.164;11.572;2023-09-18T04:50:36;7.82;;;3.10;;
16600;SDS011;34891;48.164;11.572;2023-09-18T04:55:40;6.95;;;3.10;;
16600;SDS011;34891;48.164;11.572;2023-09-18T05:00:42;8.20;;;3.42;;
16600;SDS011;34891;48.164;11.572;2023-09-18T05:05:45;7.70;;;3.65;;
16600;SDS011;34891;48.164;11.572;2023-09-18T05:10:49;7.17;;;3.50;;
16600;SDS011;34891;48.164;11.572;2023-09-18T05:15:52;7.60;;;3.63;;
16600;SDS011;34891;48.164;11.572;2023-09-18T05:20:55;5.55;;;3.25;;
16600;SDS011;34891;48.164;11.572;2023-09-18T05:25:59;7.45;;;3.70;;
16600;SDS011;34891;48.164;11.572;2023-09-18T05:31:02;9.00;;;3.93;;
16600;SDS011;34891;48.164;11.572;2023-09-18T05:36:05;8.73;;;3.90;;
16600;SDS011;34891;48.164;11.572;2023-09-18T05:41:09;10.93;;;3.60;;
16600;SDS011;34891;48.164;11.572;2023-09-18T05:46:12;8.57;;;3.60;;
16600;SDS011;34891;48.164;11.572;2023-09-18T05:51:15;7.78;;;3.65;;
16600;SDS011;34891;48.164;11.572;2023-09-18T05:56:19;9.05;;;3.65;;
16600;SDS011;34891;48.164;11.572;2023-09-18T06:01:22;10.35;;;3.78;;
16600;SDS011;34891;48.164;11.572;2023-09-18T06:06:25;10.57;;;3.58;;
16600;SDS011;34891;48.164;11.572;2023-09-18T06:11:29;6.85;;;3.55;;
16600;SDS011;34891;48.164;11.572;2023-09-18T06:16:32;10.00;;;3.55;;
16600;SDS011;34891;48.164;11.572;2023-09-18T06:21:34;8.70;;;3.73;;
16600;SDS011;34891;48.164;11.572;2023-09-18T06:26:38;11.20;;;3.58;;
16600;SDS011;34891;48.164;11.572;2023-09-18T06:31:41;8.82;;;4.03;;
16600;SDS011;34891;48.164;11.572;2023-09-18T06:36:44;9.48;;;3.58;;
16600;SDS011;34891;48.164;11.572;2023-09-18T06:41:48;9.80;;;3.83;;
16600;SDS011;34891;48.164;11.572;2023-09-18T06:46:51;10.23;;;3.90;;
16600;SDS011;34891;48.164;11.572;2023-09-18T06:51:54;7.75;;;3.60;;
16600;SDS011;34891;48.164;11.572;2023-09-18T06:56:58;8.10;;;3.70;;
16600;SDS011;34891;48.164;11.572;2023-09-18T07:02:01;8.05;;;3.60;;
16600;SDS011;34891;48.164;11.572;2023-09-18T07:07:04;7.77;;;3.50;;
16600;SDS011;34891;48.164;11.572;2023-09-18T07:12:09;7.68;;;3.42;;
16600;SDS011;34891;48.164;11.572;2023-09-18T07:17:12;11.40;;;3.65;;
16600;SDS011;34891;48.164;11.572;2023-09-18T07:22:15;7.20;;;3.60;;
16600;SDS011;34891;48.164;11.572;2023-09-18T07:27:19;8.63;;;3.80;;
16600;SDS011;34891;48.164;11.572;2023-09-18T07:32:22;9.95;;;3.88;;
16600;SDS011;34891;48.164;11.572;2023-09-18T07:37:38;8.52;;;3.53;;
16600;SDS011;34891;48.164;11.572;2023-09-18T07:42:42;9.10;;;4.27;;
16600;SDS011;34891;48.164;11.572;2023-09-18T07:47:46;9.15;;;3.80;;
16600;SDS011;34891;48.164;11.572;2023-09-18T07:52:48;5.60;;;3.80;;
16600;SDS011;34891;48.164;11.572;2023-09-18T07:57:52;7.78;;;4.15;;
16600;SDS011;34891;48.164;11.572;2023-09-18T08:02:55;9.30;;;4.10;;
16600;SDS011;34891;48.164;11.572;2023-09-18T08:08:00;7.93;;;3.80;;
16600;SDS011;34891;48.164;11.572;2023-09-18T08:13:07;9.70;;;3.80;;
16600;SDS011;34891;48.164;11.572;2023-09-18T08:18:10;9.30;;;3.58;;
16600;SDS011;34891;48.164;11.572;2023-09-18T08:23:15;6.57;;;3.47;;
16600;SDS011;34891;48.164;11.572;2023-09-18T08:28:19;8.60;;;3.70;;
16600;SDS011;34891;48.164;11.572;2023-09-18T08:33:21;6.20;;;3.65;;
16600;SDS011;34891;48.164;11.572;2023-09-18T08:38:24;8.25;;;3.50;;
16600;SDS011;34891;48.164;11.572;2023-09-18T08:43:28;8.02;;;3.80;;
16600;SDS011;34891;48.164;11.572;2023-09-18T08:48:31;10.40;;;4.00;;
16600;SDS011;34891;48.164;11.572;2023-09-18T08:53:38;7.72;;;4.05;;
16600;SDS011;34891;48.164;11.572;2023-09-18T08:58:42;5.57;;;3.80;;
16600;SDS011;34891;48.164;11.572;2023-09-18T09:03:45;8.60;;;3.92;;
16600;SDS011;34891;48.164;11.572;2023-09-18T09:08:48;7.38;;;4.10;;
16600;SDS011;34891;48.164;11.572;2023-09-18T09:14:08;10.13;;;4.20;;
16600;SDS011;34891;48.164;11.572;2023-09-18T09:19:11;8.98;;;3.90;;
16600;SDS011;34891;48.164;11.572;2023-09-18T09:24:14;9.05;;;3.67;;
16600;SDS011;34891;48.164;11.572;2023-09-18T09:29:18;9.80;;;3.53;;
16600;SDS011;34891;48.164;11.572;2023-09-18T09:34:25;8.52;;;3.83;;
16600;SDS011;34891;48.164;11.572;2023-09-18T09:39:30;8.98;;;3.72;;
16600;SDS011;34891;48.164;11.572;2023-09-18T09:44:34;8.93;;;3.80;;
16600;SDS011;34891;48.164;11.572;2023-09-18T09:49:45;11.57;;;4.07;;
16600;SDS011;34891;48.164;11.572;2023-09-18T09:54:47;10.77;;;3.80;;
16600;SDS011;34891;48.164;11.572;2023-09-18T09:59:51;13.75;;;4.50;;
16600;SDS011;34891;48.164;11.572;2023-09-18T10:04:55;9.23;;;3.90;;
16600;SDS011;34891;48.164;11.572;2023-09-18T10:09:58;9.65;;;3.60;;
16600;SDS011;34891;48.164;11.572;2023-09-18T10:15:04;10.48;;;3.83;;
16600;SDS011;34891;48.164;11.572;2023-09-18T10:20:12;8.65;;;3.10;;
16600;SDS011;34891;48.164;11.572;2023-09-18T10:25:21;9.63;;;3.60;;
16600;SDS011;34891;48.164;11.572;2023-09-18T10:30:26;10.05;;;3.20;;
16600;SDS011;34891;48.164;11.572;2023-09-18T10:35:29;9.05;;;3.08;;
16600;SDS011;34891;48.164;11.572;2023-09-18T10:40:33;9.88;;;3.20;;
16600;SDS011;34891;48.164;11.572;2023-09-18T10:45:38;9.98;;;3.22;;
16600;SDS011;34891;48.164;11.572;2023-09-18T10:50:42;10.05;;;2.75;;
16600;SDS011;34891;48.164;11.572;2023-09-18T10:55:45;7.37;;;2.40;;
16600;SDS011;34891;48.164;11.572;2023-09-18T11:00:49;11.83;;;2.97;;
16600;SDS011;34891;48.164;11.572;2023-09-18T11:06:04;12.07;;;2.72;;
16600;SDS011;34891;48.164;11.572;2023-09-18T11:11:07;11.00;;;3.03;;
16600;SDS011;34891;48.164;11.572;2023-09-18T11:16:32;11.75;;;2.90;;
16600;SDS011;34891;48.164;11.572;2023-09-18T11:21:37;11.65;;;2.92;;
16600;SDS011;34891;48.164;11.572;2023-09-18T11:26:40;6.30;;;1.80;;
16600;SDS011;34891;48.164;11.572;2023-09-18T11:31:46;13.17;;;2.63;;
16600;SDS011;34891;48.164;11.572;2023-09-18T11:36:49;10.80;;;2.40;;
16600;SDS011;34891;48.164;11.572;2023-09-18T11:41:57;7.05;;;1.60;;
16600;SDS011;34891;48.164;11.572;2023-09-18T11:47:10;7.25;;;2.10;;
16600;SDS011;34891;48.164;11.572;2023-09-18T11:52:20;5.18;;;1.52;;
16600;SDS011;34891;48.164;11.572;2023-09-18T11:57:23;6.32;;;1.83;;
16600;SDS011;34891;48.164;11.572;2023-09-18T12:02:28;8.33;;;1.60;;
16600;SDS011;34891;48.164;11.572;2023-09-18T12:07:37;7.25;;;1.73;;
16600;SDS011;34891;48.164;11.572;2023-09-18T12:12:41;5.18;;;1.38;;
16600;SDS011;34891;48.164;11.572;2023-09-18T12:17:46;5.18;;;1.23;;
16600;SDS011;34891;48.164;11.572;2023-09-18T12:22:49;4.35;;;1.38;;
16600;SDS011;34891;48.164;11.572;2023-09-18T12:27:53;5.80;;;1.40;;
16600;SDS011;34891;48.164;11.572;2023-09-18T12:32:58;2.90;;;1.20;;
16600;SDS011;34891;48.164;11.572;2023-09-18T12:38:02;3.47;;;1.42;;
16600;SDS011;34891;48.164;11.572;2023-09-18T12:43:15;2.95;;;1.30;;
16600;SDS011;34891;48.164;11.572;2023-09-18T12:48:19;3.38;;;1.60;;
16600;SDS011;34891;48.164;11.572;2023-09-18T12:53:22;6.90;;;1.70;;
16600;SDS011;34891;48.164;11.572;2023-09-18T12:58:25;2.95;;;1.00;;
16600;SDS011;34891;48.164;11.572;2023-09-18T13:03:29;7.65;;;1.42;;
16600;SDS011;34891;48.164;11.572;2023-09-18T13:08:32;5.43;;;1.33;;
16600;SDS011;34891;48.164;11.572;2023-09-18T13:13:35;2.95;;;1.08;;
16600;SDS011;34891;48.164;11.572;2023-09-18T13:18:39;5.10;;;1.67;;
16600;SDS011;34891;48.164;11.572;2023-09-18T13:23:42;4.30;;;1.30;;
16600;SDS011;34891;48.164;11.572;2023-09-18T13:28:44;5.07;;;1.48;;
16600;SDS011;34891;48.164;11.572;2023-09-18T13:33:48;4.13;;;1.57;;
16600;SDS011;34891;48.164;11.572;2023-09-18T13:38:53;5.85;;;1.65;;
16600;SDS011;34891;48.164;11.572;2023-09-18T13:43:57;3.08;;;1.10;;
16600;SDS011;34891;48.164;11.572;2023-09-18T13:49:01;4.20;;;1.20;;
16600;SDS011;34891;48.164;11.572;2023-09-18T13:54:05;5.78;;;1.60;;
16600;SDS011;34891;48.164;11.572;2023-09-18T13:59:08;3.72;;;1.40;;
16600;SDS011;34891;48.164;11.572;2023-09-18T14:04:14;4.80;;;1.30;;
16600;SDS011;34891;48.164;11.572;2023-09-18T14:09:17;4.15;;;1.40;;
16600;SDS011;34891;48.164;11.572;2023-09-18T14:14:21;3.90;;;1.47;;
16600;SDS011;34891;48.164;11.572;2023-09-18T14:19:26;4.07;;;1.30;;
16600;SDS011;34891;48.164;11.572;2023-09-18T14:24:28;3.13;;;1.40;;
16600;SDS011;34891;48.164;11.572;2023-09-18T14:29:31;5.10;;;1.40;;
16600;SDS011;34891;48.164;11.572;2023-09-18T14:34:36;3.95;;;1.60;;
16600;SDS011;34891;48.164;11.572;2023-09-18T14:39:40;3.60;;;1.50;;
16600;SDS011;34891;48.164;11.572;2023-09-18T14:44:45;3.60;;;1.27;;
16600;SDS011;34891;48.164;11.572;2023-09-18T14:49:49;5.05;;;1.67;;
16600;SDS011;34891;48.164;11.572;2023-09-18T14:54:52;3.30;;;1.50;;
16600;SDS011;34891;48.164;11.572;2023-09-18T14:59:55;3.05;;;1.40;;
16600;SDS011;34891;48.164;11.572;2023-09-18T15:04:59;3.05;;;1.10;;
16600;SDS011;34891;48.164;11.572;2023-09-18T15:10:02;2.17;;;0.90;;
16600;SDS011;34891;48.164;11.572;2023-09-18T15:15:06;4.18;;;1.17;;
16600;SDS011;34891;48.164;11.572;2023-09-18T15:20:11;1.98;;;1.10;;
16600;SDS011;34891;48.164;11.572;2023-09-18T15:25:14;3.67;;;1.10;;
16600;SDS011;34891;48.164;11.572;2023-09-18T15:30:17;2.78;;;1.17;;
16600;SDS011;34891;48.164;11.572;2023-09-18T15:35:22;3.65;;;1.20;;
16600;SDS011;34891;48.164;11.572;2023-09-18T15:40:25;3.13;;;1.30;;
16600;SDS011;34891;48.164;11.572;2023-09-18T15:45:28;3.60;;;1.10;;
16600;SDS011;34891;48.164;11.572;2023-09-18T15:50:32;3.15;;;1.20;;
16600;SDS011;34891;48.164;11.572;2023-09-18T15:55:39;4.55;;;1.80;;
16600;SDS011;34891;48.164;11.572;2023-09-18T16:00:42;4.27;;;1.50;;
16600;SDS011;34891;48.164;11.572;2023-09-18T16:05:46;2.85;;;1.35;;
16600;SDS011;34891;48.164;11.572;2023-09-18T16:10:53;2.23;;;0.93;;
16600;SDS011;34891;48.164;11.572;2023-09-18T16:15:56;3.08;;;1.10;;
16600;SDS011;34891;48.164;11.572;2023-09-18T16:21:01;1.33;;;0.70;;
16600;SDS011;34891;48.164;11.572;2023-09-18T16:26:04;2.90;;;1.20;;
16600;SDS011;34891;48.164;11.572;2023-09-18T16:31:06;1.58;;;0.80;;
16600;SDS011;34891;48.164;11.572;2023-09-18T16:36:11;3.00;;;0.80;;
16600;SDS011;34891;48.164;11.572;2023-09-18T16:41:14;2.35;;;0.93;;
16600;SDS011;34891;48.164;11.572;2023-09-18T16:46:16;1.17;;;0.73;;
16600;SDS011;34891;48.164;11.572;2023-09-18T16:51:21;2.45;;;0.77;;
16600;SDS011;34891;48.164;11.572;2023-09-18T16:56:23;3.00;;;1.23;;
16600;SDS011;34891;48.164;11.572;2023-09-18T17:01:26;3.85;;;1.05;;
16600;SDS011;34891;48.164;11.572;2023-09-18T17:06:30;1.42;;;0.90;;
16600;SDS011;34891;48.164;11.572;2023-09-18T17:11:36;2.92;;;1.20;;
16600;SDS011;34891;48.164;11.572;2023-09-18T17:16:38;3.08;;;1.17;;
16600;SDS011;34891;48.164;11.572;2023-09-18T17:21:43;2.33;;;1.00;;
16600;SDS011;34891;48.164;11.572;2023-09-18T17:26:45;1.73;;;0.85;;
16600;SDS011;34891;48.164;11.572;2023-09-18T17:31:48;2.87;;;1.20;;
16600;SDS011;34891;48.164;11.572;2023-09-18T17:36:52;1.83;;;1.10;;
16600;SDS011;34891;48.164;11.572;2023-09-18T17:41:57;2.15;;;0.82;;
16600;SDS011;34891;48.164;11.572;2023-09-18T17:47:00;2.50;;;1.17;;
16600;SDS011;34891;48.164;11.572;2023-09-18T17:52:05;3.38;;;1.30;;
16600;SDS011;34891;48.164;11.572;2023-09-18T17:57:10;2.72;;;1.25;;
16600;SDS011;34891;48.164;11.572;2023-09-18T18:02:13;4.03;;;1.17;;
16600;SDS011;34891;48.164;11.572;2023-09-18T18:07:18;2.87;;;1.27;;
16600;SDS011;34891;48.164;11.572;2023-09-18T18:12:20;4.20;;;1.30;;
16600;SDS011;34891;48.164;11.572;2023-09-18T18:17:23;1.80;;;0.95;;
16600;SDS011;34891;48.164;11.572;2023-09-18T18:22:27;3.80;;;1.20;;
16600;SDS011;34891;48.164;11.572;2023-09-18T18:27:30;4.17;;;1.67;;
16600;SDS011;34891;48.164;11.572;2023-09-18T18:32:35;3.07;;;1.23;;
16600;SDS011;34891;48.164;11.572;2023-09-18T18:37:39;3.45;;;1.30;;
16600;SDS011;34891;48.164;11.572;2023-09-18T18:42:42;2.50;;;1.50;;
16600;SDS011;34891;48.164;11.572;2023-09-18T18:47:50;4.53;;;2.00;;
16600;SDS011;34891;48.164;11.572;2023-09-18T18:52:55;5.78;;;1.50;;
16600;SDS011;34891;48.164;11.572;2023-09-18T18:57:58;4.85;;;2.13;;
16600;SDS011;34891;48.164;11.572;2023-09-18T19:03:01;2.80;;;1.63;;
16600;SDS011;34891;48.164;11.572;2023-09-18T19:08:07;4.63;;;1.58;;
16600;SDS011;34891;48.164;11.572;2023-09-18T19:13:10;5.03;;;1.50;;
16600;SDS011;34891;48.164;11.572;2023-09-18T19:18:13;3.47;;;1.42;;
16600;SDS011;34891;48.164;11.572;2023-09-18T19:23:18;1.85;;;0.88;;
16600;SDS011;34891;48.164;11.572;2023-09-18T19:28:21;2.92;;;1.42;;
16600;SDS011;34891;48.164;11.572;2023-09-18T19:33:25;3.00;;;1.38;;
16600;SDS011;34891;48.164;11.572;2023-09-18T19:38:30;3.53;;;1.63;;
16600;SDS011;34891;48.164;11.572;2023-09-18T19:43:33;3.90;;;1.20;;
16600;SDS011;34891;48.164;11.572;2023-09-18T19:48:36;2.92;;;1.42;;
16600;SDS011;34891;48.164;11.572;2023-09-18T19:53:40;2.10;;;1.13;;
16600;SDS011;34891;48.164;11.572;2023-09-18T19:58:43;2.63;;;1.40;;
16600;SDS011;34891;48.164;11.572;2023-09-18T20:03:47;4.32;;;1.38;;
16600;SDS011;34891;48.164;11.572;2023-09-18T20:08:53;2.58;;;1.30;;
16600;SDS011;34891;48.164;11.572;2023-09-18T20:13:56;2.97;;;1.10;;
16600;SDS011;34891;48.164;11.572;2023-09-18T20:18:59;3.35;;;1.80;;
16600;SDS011;34891;48.164;11.572;2023-09-18T20:24:05;2.80;;;1.60;;
16600;SDS011;34891;48.164;11.572;2023-09-18T20:29:07;2.63;;;1.40;;
16600;SDS011;34891;48.164;11.572;2023-09-18T20:34:10;4.40;;;1.63;;
16600;SDS011;34891;48.164;11.572;2023-09-18T20:39:15;2.95;;;1.30;;
16600;SDS011;34891;48.164;11.572;2023-09-18T20:44:18;2.73;;;1.33;;
16600;SDS011;34891;48.164;11.572;2023-09-18T20:49:23;3.38;;;1.30;;
16600;SDS011;34891;48.164;11.572;2023-09-18T20:54:27;2.13;;;1.00;;
16600;SDS011;34891;48.164;11.572;2023-09-18T20:59:30;2.88;;;1.00;;
16600;SDS011;34891;48.164;11.572;2023-09-18T21:04:33;2.35;;;1.10;;
16600;SDS011;34891;48.164;11.572;2023-09-18T21:09:37;2.47;;;1.05;;
16600;SDS011;34891;48.164;11.572;2023-09-18T21:14:41;3.57;;;1.50;;
16600;SDS011;34891;48.164;11.572;2023-09-18T21:19:44;2.80;;;1.13;;
16600;SDS011;34891;48.164;11.572;2023-09-18T21:24:48;3.40;;;1.42;;
16600;SDS011;34891;48.164;11.572;2023-09-18T21:29:52;1.93;;;0.80;;
16600;SDS011;34891;48.164;11.572;2023-09-18T21:34:54;2.70;;;1.10;;
16600;SDS011;34891;48.164;11.572;2023-09-18T21:39:58;3.70;;;1.23;;
16600;SDS011;34891;48.164;11.572;2023-09-18T21:45:01;2.35;;;1.30;;
16600;SDS011;34891;48.164;11.572;2023-09-18T21:50:05;2.25;;;1.10;;
16600;SDS011;34891;48.164;11.572;2023-09-18T21:55:09;3.88;;;1.40;;
16600;SDS011;34891;48.164;11.572;2023-09-18T22:00:12;2.45;;;1.17;;
16600;SDS011;34891;48.164;11.572;2023-09-18T22:05:18;2.13;;;1.20;;
16600;SDS011;34891;48.164;11.572;2023-09-18T22:10:22;1.98;;;1.10;;
16600;SDS011;34891;48.164;11.572;2023-09-18T22:15:25;1.95;;;1.02;;
16600;SDS011;34891;48.164;11.572;2023-09-18T22:20:27;3.07;;;1.10;;
16600;SDS011;34891;48.164;11.572;2023-09-18T22:25:32;3.55;;;1.30;;
16600;SDS011;34891;48.164;11.572;2023-09-18T22:30:38;1.50;;;0.90;;
16600;SDS011;34891;48.164;11.572;2023-09-18T22:35:42;2.60;;;1.17;;
16600;SDS011;34891;48.164;11.572;2023-09-18T22:56:32;1.92;;;1.13;;
16600;SDS011;34891;48.164;11.572;2023-09-18T23:01:35;2.55;;;1.10;;
16600;SDS011;34891;48.164;11.572;2023-09-18T23:06:38;4.77;;;1.00;;
16600;SDS011;34891;48.164;11.572;2023-09-18T23:11:44;2.20;;;1.00;;
16600;SDS011;34891;48.164;11.572;2023-09-18T23:16:47;2.60;;;1.10;;
16600;SDS011;34891;48.164;11.572;2023-09-18T23:21:50;2.70;;;1.23;;
16600;SDS011;34891;48.164;11.572;2023-09-18T23:26:54;3.90;;;1.20;;
16600;SDS011;34891;48.164;11.572;2023-09-18T23:31:58;2.40;;;1.00;;
16600;SDS011;34891;48.164;11.572;2023-09-18T23:37:01;1.92;;;0.90;;
16600;SDS011;34891;48.164;11.572;2023-09-18T23:42:06;1.35;;;0.77;;
16600;SDS011;34891;48.164;11.572;2023-09-18T23:47:09;4.00;;;1.15;;
16600;SDS011;34891;48.164;11.572;2023-09-18T23:52:13;2.03;;;0.77;;
16600;SDS011;34891;48.164;11.572;2023-09-18T23:57:18;2.08;;;0.90;;
